Sunday, August 19, 2018, 12:28 AM GMT
Back to Local

CWRK, Bancroft Automatic Weather Reporting System

Location: , , Canada Lat: 45.067
Local Time: 12:28 AM GMT ( 0:28 GMT) Lon: -77.867
Time Zone: GMT Elev: 1085 ft

Show me the last for .
Show Coded

Time T Td Feel RH Dir Speed Gust Alt SLP Vis Weather Sky Remarks
2018-08-19 00:00 63 56 - 77 290° 1 - - 30.01 0 None
2018-08-18 23:00 68 58 - 68 340° 3 - - 30.00 0 None
2018-08-18 22:00 70 56 76 61 360° 5 - - 30.00 0 None
2018-08-18 21:00 70 57 - 63 30° 3 - - 30.00 0 None
2018-08-18 20:00 69 57 - 67 30° 5 - - 30.00 0 None
2018-08-18 19:00 67 57 - 70 360° 6 - - 30.00 0 None
2018-08-18 18:00 65 60 - 82 20° 2 - - 30.01 0 None
2018-08-18 17:00 65 56 - 73 360° 6 - - 30.01 0 None
2018-08-18 16:00 66 57 - 74 360° 6 - - 30.02 0 None
2018-08-18 15:00 65 56 - 73 30° 7 - - 30.01 0 None
2018-08-18 14:00 65 59 - 80 20° 7 - - 30.01 0 None
2018-08-18 13:00 63 59 - 86 20° 6 - - 30.00 0 None
2018-08-18 12:00 62 61 - 95 10° 5 - - 30.00 0 None
2018-08-18 11:00 60 60 - 99 320° 3 - - 29.99 0 None
2018-08-18 10:00 60 60 - 100 320° 2 - - 29.98 0 None
2018-08-18 09:00 60 60 - 100 300° 3 - - 29.97 0 None
2018-08-18 08:00 59 59 - 100 10° 2 - - 29.96 0 None
2018-08-18 07:00 61 61 - 100 - Calm - - 29.95 0 None
2018-08-18 06:00 62 62 - 100 350° 1 - - 29.95 0 None
2018-08-18 05:00 63 63 - 100 - Calm - - 29.95 0 None
2018-08-18 04:00 63 63 - 100 320° 2 - - 29.95 0 None
2018-08-18 03:00 64 64 - 98 310° 3 - - 29.94 0 None
2018-08-18 02:00 65 64 - 98 270° 1 - - 29.94 0 None
2018-08-18 01:00 65 64 - 95 310° 1 - - 29.93 0 None

Support USWX by starting your Amazon purchase here.